KOSC/OSC METAR and TAF weather

Enter ICAO airport designator
Station Type Date Time Source
KOSC METAR 2020/07/10 18:15 UTC NOAA

KOSC 101815Z AUTO 24004KT 10SM CLR 28/18 A2975 RMK AO2 T02750181


Station Type Date Time Source
KOSC Decoded METAR 2020/07/10 18:15 UTC NOAA

Oscoda, Oscoda-Wurtsmith Airport, MI, United States (KOSC) 44-27N 083-22W
Jul 10, 2020 - 02:15 PM EDT / 2020.07.10 1815 UTC
Wind: from the WSW (240 degrees) at 5 MPH (4 KT):0
Visibility: 10 mile(s):0
Sky conditions: clear
Temperature: 81.5 F (27.5 C)
Dew Point: 64.6 F (18.1 C)
Relative Humidity: 56%
Pressure (altimeter): 29.75 in. Hg (1007 hPa)
ob: KOSC 101815Z AUTO 24004KT 10SM CLR 28/18 A2975 RMK AO2 T02750181
cycle: 18

Station Type Date Time Source
KOSC TAF UTC NOAA

Error!

Example: see airport list